createdAt,value
2017-11-03T00:00:02.669Z,793.69
2017-11-03T00:00:06.752Z,793.69
2017-11-03T00:00:10.976Z,793.68
2017-11-03T00:00:15.060Z,793.68
2017-11-03T00:00:19.419Z,793.71
2017-11-03T00:00:23.377Z,793.67
2017-11-03T00:00:27.442Z,793.68
2017-11-03T00:00:31.524Z,793.68
2017-11-03T00:00:35.636Z,793.69
2017-11-03T00:00:39.717Z,793.69
2017-11-03T00:00:44.063Z,793.72
2017-11-03T00:00:47.882Z,793.69
2017-11-03T00:00:51.966Z,793.69
2017-11-03T00:00:56.052Z,793.69
2017-11-03T00:01:00.230Z,793.72
2017-11-03T00:01:04.320Z,793.7
2017-11-03T00:01:08.539Z,793.69
2017-11-03T00:01:12.489Z,793.71
2017-11-03T00:01:16.699Z,793.69
2017-11-03T00:01:20.650Z,793.72
2017-11-03T00:01:24.731Z,793.74
2017-11-03T00:01:28.807Z,793.72
2017-11-03T00:01:32.756Z,793.71
2017-11-03T00:01:36.842Z,793.71
2017-11-03T00:01:41.057Z,793.71
2017-11-03T00:01:45.001Z,793.7
2017-11-03T00:01:48.946Z,793.72
2017-11-03T00:01:53.028Z,793.68
2017-11-03T00:01:57.104Z,793.72
2017-11-03T00:02:01.051Z,793.71
2017-11-03T00:02:05.377Z,793.7
2017-11-03T00:02:09.726Z,793.69
2017-11-03T00:02:13.933Z,793.73
2017-11-03T00:02:17.872Z,793.68
2017-11-03T00:02:21.954Z,793.69
2017-11-03T00:02:25.905Z,793.72
2017-11-03T00:02:29.853Z,793.69
2017-11-03T00:02:34.067Z,793.71
2017-11-03T00:02:38.278Z,793.68
2017-11-03T00:02:42.354Z,793.71
2017-11-03T00:02:46.572Z,793.7
2017-11-03T00:02:50.804Z,793.71
2017-11-03T00:02:54.619Z,793.69
2017-11-03T00:02:58.436Z,793.68
2017-11-03T00:03:02.946Z,793.7
2017-11-03T00:03:07.159Z,793.72
2017-11-03T00:03:11.374Z,793.7
2017-11-03T00:03:15.719Z,793.66
2017-11-03T00:03:19.797Z,793.7
2017-11-03T00:03:23.872Z,793.7
2017-11-03T00:03:27.943Z,793.69
2017-11-03T00:03:32.290Z,793.71
2017-11-03T00:03:36.516Z,793.67
2017-11-03T00:03:40.464Z,793.7
2017-11-03T00:03:44.419Z,793.7
2017-11-03T00:03:48.495Z,793.67
2017-11-03T00:03:52.585Z,793.69
2017-11-03T00:03:56.796Z,793.71
2017-11-03T00:04:01.012Z,793.7
2017-11-03T00:04:05.604Z,793.69
2017-11-03T00:04:09.813Z,793.68
2017-11-03T00:04:13.759Z,793.68
2017-11-03T00:04:17.711Z,793.69
2017-11-03T00:04:21.650Z,793.71
2017-11-03T00:04:25.731Z,793.7
2017-11-03T00:04:30.082Z,793.67
2017-11-03T00:04:34.167Z,793.64
2017-11-03T00:04:38.121Z,793.7
2017-11-03T00:04:42.347Z,793.66
2017-11-03T00:04:46.162Z,793.69
2017-11-03T00:04:50.106Z,793.67
2017-11-03T00:04:53.927Z,793.68
2017-11-03T00:04:57.884Z,793.66
2017-11-03T00:05:02.266Z,793.7
2017-11-03T00:05:06.342Z,793.68
2017-11-03T00:05:10.681Z,793.65
2017-11-03T00:05:15.024Z,793.7
2017-11-03T00:05:19.371Z,793.68
2017-11-03T00:05:23.442Z,793.68
2017-11-03T00:05:27.261Z,793.65
2017-11-03T00:05:31.606Z,793.65
2017-11-03T00:05:35.548Z,793.68
2017-11-03T00:05:39.490Z,793.67
2017-11-03T00:05:43.583Z,793.61
2017-11-03T00:05:47.789Z,793.61
2017-11-03T00:05:51.866Z,793.64
2017-11-03T00:05:55.953Z,793.62
2017-11-03T00:05:59.937Z,793.65
2017-11-03T00:06:03.890Z,793.64
2017-11-03T00:06:07.980Z,793.61
2017-11-03T00:06:11.925Z,793.68
2017-11-03T00:06:15.869Z,793.68
2017-11-03T00:06:20.089Z,793.68
2017-11-03T00:06:24.058Z,793.67
2017-11-03T00:06:27.873Z,793.67
2017-11-03T00:06:32.113Z,793.63
2017-11-03T00:06:36.193Z,793.66
2017-11-03T00:06:40.527Z,793.65
2017-11-03T00:06:44.616Z,793.65
2017-11-03T00:06:48.831Z,793.66
2017-11-03T00:06:52.774Z,793.64
2017-11-03T00:06:56.583Z,793.66
2017-11-03T00:07:00.801Z,793.62
2017-11-03T00:07:05.274Z,793.63
2017-11-03T00:07:09.216Z,793.64
2017-11-03T00:07:13.421Z,793.66
2017-11-03T00:07:17.638Z,793.65
2017-11-03T00:07:21.716Z,793.65
2017-11-03T00:07:25.795Z,793.66
2017-11-03T00:07:29.746Z,793.66
2017-11-03T00:07:33.961Z,793.65
2017-11-03T00:07:38.039Z,793.59
2017-11-03T00:07:42.141Z,793.64
2017-11-03T00:07:46.492Z,793.62
2017-11-03T00:07:50.833Z,793.65
2017-11-03T00:07:54.652Z,793.67
2017-11-03T00:07:58.600Z,793.64
2017-11-03T00:08:02.813Z,793.67
2017-11-03T00:08:06.765Z,793.68
2017-11-03T00:08:10.974Z,793.67
2017-11-03T00:08:15.052Z,793.63
2017-11-03T00:08:19.004Z,793.64
2017-11-03T00:08:23.091Z,793.69
2017-11-03T00:08:26.905Z,793.67
2017-11-03T00:08:30.722Z,793.64
2017-11-03T00:08:34.808Z,793.67
2017-11-03T00:08:38.889Z,793.68
2017-11-03T00:08:42.973Z,793.65
2017-11-03T00:08:47.049Z,793.64
2017-11-03T00:08:51.018Z,793.66
2017-11-03T00:08:55.100Z,793.66
2017-11-03T00:08:59.440Z,793.66
2017-11-03T00:09:03.524Z,793.66
2017-11-03T00:09:07.480Z,793.67
2017-11-03T00:09:11.296Z,793.66
2017-11-03T00:09:15.533Z,793.66
2017-11-03T00:09:19.330Z,793.67
2017-11-03T00:09:23.272Z,793.63
2017-11-03T00:09:27.350Z,793.64
2017-11-03T00:09:31.568Z,793.65
2017-11-03T00:09:35.251Z,793.65
2017-11-03T00:09:39.465Z,793.66
2017-11-03T00:09:43.689Z,793.64
2017-11-03T00:09:47.779Z,793.59
2017-11-03T00:09:51.988Z,793.63
2017-11-03T00:09:56.080Z,793.65
2017-11-03T00:10:00.030Z,793.66
2017-11-03T00:10:03.846Z,793.67
2017-11-03T00:10:07.936Z,793.62
2017-11-03T00:10:11.880Z,793.63
2017-11-03T00:10:15.822Z,793.64
2017-11-03T00:10:20.163Z,793.65
2017-11-03T00:10:24.249Z,793.64
2017-11-03T00:10:28.333Z,793.63
2017-11-03T00:10:32.808Z,793.61
2017-11-03T00:10:36.635Z,793.59
2017-11-03T00:10:40.580Z,793.61
2017-11-03T00:10:44.799Z,793.61
2017-11-03T00:10:49.012Z,793.67
2017-11-03T00:10:53.092Z,793.64
2017-11-03T00:10:57.311Z,793.63
2017-11-03T00:11:01.254Z,793.64
2017-11-03T00:11:05.463Z,793.6
2017-11-03T00:11:09.671Z,793.61
2017-11-03T00:11:13.353Z,793.66
2017-11-03T00:11:17.306Z,793.61
2017-11-03T00:11:21.256Z,793.62
2017-11-03T00:11:25.332Z,793.62
2017-11-03T00:11:29.273Z,793.63
2017-11-03T00:11:33.358Z,793.62
2017-11-03T00:11:37.171Z,793.63
2017-11-03T00:11:41.118Z,793.62
2017-11-03T00:11:45.192Z,793.61
2017-11-03T00:11:49.002Z,793.61
2017-11-03T00:11:53.103Z,793.6
2017-11-03T00:11:57.208Z,793.64
2017-11-03T00:12:01.157Z,793.64
2017-11-03T00:12:05.369Z,793.62
2017-11-03T00:12:09.727Z,793.61
2017-11-03T00:12:13.803Z,793.61
2017-11-03T00:12:18.017Z,793.62
2017-11-03T00:12:22.256Z,793.59
2017-11-03T00:12:26.482Z,793.59
2017-11-03T00:12:30.689Z,793.59
2017-11-03T00:12:34.772Z,793.57
2017-11-03T00:12:38.985Z,793.6
2017-11-03T00:12:43.072Z,793.58
2017-11-03T00:12:47.423Z,793.59
2017-11-03T00:12:51.372Z,793.61
2017-11-03T00:12:55.322Z,793.6
2017-11-03T00:12:59.535Z,793.58
2017-11-03T00:13:04.068Z,793.6
2017-11-03T00:13:08.156Z,793.62
2017-11-03T00:13:12.367Z,793.59
2017-11-03T00:13:16.448Z,793.59
2017-11-03T00:13:20.660Z,793.56
2017-11-03T00:13:24.864Z,793.58
2017-11-03T00:13:29.205Z,793.6
2017-11-03T00:13:33.151Z,793.6
2017-11-03T00:13:37.234Z,793.58
2017-11-03T00:13:40.915Z,793.59
2017-11-03T00:13:44.875Z,793.59
2017-11-03T00:13:49.080Z,793.56
2017-11-03T00:13:53.158Z,793.58
2017-11-03T00:13:57.113Z,793.59
2017-11-03T00:14:01.057Z,793.56
2017-11-03T00:14:05.020Z,793.57
2017-11-03T00:14:09.235Z,793.57
2017-11-03T00:14:12.925Z,793.57
2017-11-03T00:14:17.134Z,793.58
2017-11-03T00:14:21.489Z,793.57
2017-11-03T00:14:25.303Z,793.59
2017-11-03T00:14:29.517Z,793.57
2017-11-03T00:14:33.459Z,793.57
2017-11-03T00:14:37.675Z,793.57
2017-11-03T00:14:41.879Z,793.56
2017-11-03T00:14:46.098Z,793.56
2017-11-03T00:14:49.910Z,793.56
2017-11-03T00:14:54.117Z,793.57
2017-11-03T00:14:58.067Z,793.55
2017-11-03T00:15:02.461Z,793.56
2017-11-03T00:15:06.541Z,793.58
2017-11-03T00:15:10.351Z,793.56
2017-11-03T00:15:14.167Z,793.55
2017-11-03T00:15:18.119Z,793.54
2017-11-03T00:15:22.191Z,793.58
2017-11-03T00:15:26.147Z,793.55
2017-11-03T00:15:30.359Z,793.52
2017-11-03T00:15:34.572Z,793.56
2017-11-03T00:15:38.656Z,793.52
2017-11-03T00:15:42.473Z,793.52
2017-11-03T00:15:46.676Z,793.55
2017-11-03T00:15:50.887Z,793.54
2017-11-03T00:15:54.967Z,793.56
2017-11-03T00:15:58.917Z,793.56
2017-11-03T00:16:03.592Z,793.52
2017-11-03T00:16:07.409Z,793.55
2017-11-03T00:16:11.356Z,793.56
2017-11-03T00:16:15.571Z,793.54
2017-11-03T00:16:19.518Z,793.5
2017-11-03T00:16:23.333Z,793.56
2017-11-03T00:16:27.412Z,793.55
2017-11-03T00:16:31.753Z,793.57
2017-11-03T00:16:35.830Z,793.54
2017-11-03T00:16:39.787Z,793.55
2017-11-03T00:16:44.143Z,793.54
2017-11-03T00:16:48.089Z,793.56
2017-11-03T00:16:52.040Z,793.56
2017-11-03T00:16:56.253Z,793.51
2017-11-03T00:17:00.475Z,793.49
2017-11-03T00:17:04.686Z,793.53
2017-11-03T00:17:08.899Z,793.53
2017-11-03T00:17:12.979Z,793.55
2017-11-03T00:17:17.065Z,793.49
2017-11-03T00:17:21.139Z,793.51
2017-11-03T00:17:25.483Z,793.53
2017-11-03T00:17:29.296Z,793.51
2017-11-03T00:17:33.510Z,793.53
2017-11-03T00:17:37.592Z,793.47
2017-11-03T00:17:41.662Z,793.53
2017-11-03T00:17:45.742Z,793.52
2017-11-03T00:17:49.822Z,793.52
2017-11-03T00:17:54.037Z,793.5
2017-11-03T00:17:58.527Z,793.53
2017-11-03T00:18:02.473Z,793.5
2017-11-03T00:18:06.423Z,793.55
2017-11-03T00:18:10.645Z,793.54
2017-11-03T00:18:14.989Z,793.54
2017-11-03T00:18:18.939Z,793.56
2017-11-03T00:18:23.046Z,793.55
2017-11-03T00:18:27.122Z,793.52
2017-11-03T00:18:31.069Z,793.55
2017-11-03T00:18:35.285Z,793.54
2017-11-03T00:18:39.372Z,793.52
2017-11-03T00:18:43.188Z,793.51
2017-11-03T00:18:47.530Z,793.52
2017-11-03T00:18:51.474Z,793.46
2017-11-03T00:18:55.422Z,793.46
2017-11-03T00:18:59.505Z,793.5
2017-11-03T00:19:03.794Z,793.52
2017-11-03T00:19:07.612Z,793.51
2017-11-03T00:19:11.296Z,793.53
2017-11-03T00:19:15.385Z,793.51
2017-11-03T00:19:19.471Z,793.49
2017-11-03T00:19:23.553Z,793.53
2017-11-03T00:19:27.502Z,793.52
2017-11-03T00:19:31.580Z,793.53
2017-11-03T00:19:35.785Z,793.47
2017-11-03T00:19:40.128Z,793.53
2017-11-03T00:19:44.074Z,793.47
2017-11-03T00:19:48.292Z,793.44
2017-11-03T00:19:52.629Z,793.47
2017-11-03T00:19:56.574Z,793.45
2017-11-03T00:20:00.389Z,793.47
2017-11-03T00:20:04.386Z,793.49
2017-11-03T00:20:08.333Z,793.47
2017-11-03T00:20:12.444Z,793.49
2017-11-03T00:20:16.521Z,793.48
2017-11-03T00:20:20.468Z,793.49
2017-11-03T00:20:24.412Z,793.51
2017-11-03T00:20:28.623Z,793.51
2017-11-03T00:20:32.570Z,793.52
2017-11-03T00:20:36.546Z,793.51
2017-11-03T00:20:40.628Z,793.5
2017-11-03T00:20:44.978Z,793.49
2017-11-03T00:20:49.193Z,793.51
2017-11-03T00:20:53.270Z,793.52
2017-11-03T00:20:56.949Z,793.49
2017-11-03T00:21:00.898Z,793.49
2017-11-03T00:21:04.936Z,793.49
2017-11-03T00:21:08.881Z,793.47
2017-11-03T00:21:12.962Z,793.48
2017-11-03T00:21:17.035Z,793.48
2017-11-03T00:21:20.984Z,793.49
2017-11-03T00:21:25.196Z,793.47
2017-11-03T00:21:29.275Z,793.48
2017-11-03T00:21:33.217Z,793.48
2017-11-03T00:21:37.307Z,793.49
2017-11-03T00:21:41.123Z,793.53
2017-11-03T00:21:45.197Z,793.45
2017-11-03T00:21:49.148Z,793.47
2017-11-03T00:21:53.222Z,793.48
2017-11-03T00:21:57.431Z,793.48
2017-11-03T00:22:01.634Z,793.46
2017-11-03T00:22:05.844Z,793.47
2017-11-03T00:22:09.783Z,793.5
2017-11-03T00:22:14.256Z,793.51
2017-11-03T00:22:18.205Z,793.5
2017-11-03T00:22:22.298Z,793.51
2017-11-03T00:22:26.381Z,793.48
2017-11-03T00:22:30.328Z,793.48
2017-11-03T00:22:34.669Z,793.51
2017-11-03T00:22:38.878Z,793.51
2017-11-03T00:22:42.970Z,793.52
2017-11-03T00:22:47.185Z,793.5
2017-11-03T00:22:51.129Z,793.5
2017-11-03T00:22:55.336Z,793.5
2017-11-03T00:22:59.413Z,793.53
2017-11-03T00:23:04.060Z,793.5
2017-11-03T00:23:08.012Z,793.47
2017-11-03T00:23:12.095Z,793.47
2017-11-03T00:23:52.613Z,793.5
2017-11-03T00:23:56.564Z,793.49
2017-11-03T00:24:00.764Z,793.5
2017-11-03T00:24:04.726Z,793.48
2017-11-03T00:24:08.962Z,793.47
2017-11-03T00:24:13.180Z,793.48
2017-11-03T00:24:17.263Z,793.49
2017-11-03T00:24:21.081Z,793.52
2017-11-03T00:24:25.035Z,793.48
2017-11-03T00:24:29.116Z,793.5
2017-11-03T00:24:33.335Z,793.5
2017-11-03T00:24:37.419Z,793.52
2017-11-03T00:24:41.235Z,793.53
2017-11-03T00:24:45.321Z,793.51
2017-11-03T00:24:49.672Z,793.49
2017-11-03T00:24:53.750Z,793.53
2017-11-03T00:24:57.565Z,793.49
2017-11-03T00:25:01.512Z,793.49
2017-11-03T00:25:05.642Z,793.52
2017-11-03T00:25:09.723Z,793.49
2017-11-03T00:25:13.938Z,793.49
2017-11-03T00:25:18.280Z,793.51
2017-11-03T00:25:22.496Z,793.49
2017-11-03T00:25:26.708Z,793.51
2017-11-03T00:25:30.518Z,793.51
2017-11-03T00:25:34.468Z,793.49
2017-11-03T00:25:38.556Z,793.51
2017-11-03T00:25:42.510Z,793.49
2017-11-03T00:25:46.335Z,793.47
2017-11-03T00:25:50.550Z,793.48
2017-11-03T00:25:54.495Z,793.48
2017-11-03T00:25:58.576Z,793.49
2017-11-03T00:26:02.798Z,793.49
2017-11-03T00:26:07.020Z,793.43
2017-11-03T00:26:11.227Z,793.46
2017-11-03T00:26:15.312Z,793.44
2017-11-03T00:26:19.255Z,793.47
2017-11-03T00:26:23.201Z,793.47
2017-11-03T00:26:27.282Z,793.45
2017-11-03T00:26:31.110Z,793.48
2017-11-03T00:26:35.458Z,793.47
2017-11-03T00:26:39.272Z,793.43
2017-11-03T00:26:43.355Z,793.42
2017-11-03T00:26:47.174Z,793.44
2017-11-03T00:26:51.383Z,793.4
2017-11-03T00:26:55.596Z,793.43
2017-11-03T00:26:59.808Z,793.45
2017-11-03T00:27:04.158Z,793.45
2017-11-03T00:27:07.976Z,793.44
2017-11-03T00:27:11.809Z,793.49
2017-11-03T00:27:15.894Z,793.47
2017-11-03T00:27:19.978Z,793.44
2017-11-03T00:27:23.932Z,793.46
2017-11-03T00:27:27.880Z,793.46
2017-11-03T00:27:31.967Z,793.45
2017-11-03T00:27:36.043Z,793.47
2017-11-03T00:27:40.132Z,793.45
2017-11-03T00:27:44.468Z,793.46
2017-11-03T00:27:48.548Z,793.44
2017-11-03T00:27:52.497Z,793.42
2017-11-03T00:27:56.440Z,793.47
2017-11-03T00:28:00.251Z,793.5
2017-11-03T00:28:04.414Z,793.5
2017-11-03T00:28:08.494Z,793.45
2017-11-03T00:28:12.578Z,793.44
2017-11-03T00:28:16.534Z,793.42
2017-11-03T00:28:20.614Z,793.44
2017-11-03T00:28:24.563Z,793.48
2017-11-03T00:28:28.377Z,793.44
2017-11-03T00:28:32.600Z,793.45
2017-11-03T00:28:36.549Z,793.43
2017-11-03T00:28:40.762Z,793.42
2017-11-03T00:28:45.231Z,793.4
2017-11-03T00:28:49.588Z,793.44
2017-11-03T00:28:53.805Z,793.43
2017-11-03T00:28:57.893Z,793.43
2017-11-03T00:29:02.464Z,793.43
2017-11-03T00:29:06.679Z,793.41
2017-11-03T00:29:11.027Z,793.43
2017-11-03T00:29:15.373Z,793.35
2017-11-03T00:29:19.307Z,793.38
2017-11-03T00:29:23.266Z,793.4
2017-11-03T00:29:27.211Z,793.4
2017-11-03T00:29:31.029Z,793.42
2017-11-03T00:29:35.115Z,793.36
2017-11-03T00:29:39.093Z,793.36
2017-11-03T00:29:43.433Z,793.34
2017-11-03T00:29:47.792Z,793.36
2017-11-03T00:29:52.018Z,793.37
2017-11-03T00:29:56.093Z,793.38
2017-11-03T00:30:00.039Z,793.4
2017-11-03T00:30:04.260Z,793.4
2017-11-03T00:30:08.209Z,793.41
2017-11-03T00:30:12.152Z,793.42
2017-11-03T00:30:16.501Z,793.37
2017-11-03T00:30:20.709Z,793.41
2017-11-03T00:30:25.051Z,793.42
2017-11-03T00:30:29.266Z,793.42
2017-11-03T00:30:33.214Z,793.39
2017-11-03T00:30:37.294Z,793.39
2017-11-03T00:30:41.526Z,793.41
2017-11-03T00:30:45.864Z,793.39
2017-11-03T00:30:49.928Z,793.39
2017-11-03T00:30:54.414Z,793.41
2017-11-03T00:30:58.752Z,793.39
2017-11-03T00:31:02.834Z,793.36
2017-11-03T00:31:07.201Z,793.36
2017-11-03T00:31:11.014Z,793.33
2017-11-03T00:31:14.698Z,793.35
2017-11-03T00:31:18.783Z,793.37
2017-11-03T00:31:22.876Z,793.36
2017-11-03T00:31:26.815Z,793.41
2017-11-03T00:31:30.899Z,793.41
2017-11-03T00:31:35.104Z,793.39
2017-11-03T00:31:39.050Z,793.39
2017-11-03T00:31:43.131Z,793.36
2017-11-03T00:31:47.346Z,793.42
2017-11-03T00:31:51.427Z,793.38
2017-11-03T00:31:55.639Z,793.42
2017-11-03T00:31:59.591Z,793.38
2017-11-03T00:32:03.853Z,793.36
2017-11-03T00:32:07.934Z,793.4
2017-11-03T00:32:11.747Z,793.4
2017-11-03T00:32:15.699Z,793.38
2017-11-03T00:32:19.776Z,793.39
2017-11-03T00:32:23.592Z,793.35
2017-11-03T00:32:27.672Z,793.4
2017-11-03T00:32:31.753Z,793.42
2017-11-03T00:32:35.444Z,793.41
2017-11-03T00:32:39.527Z,793.38
2017-11-03T00:32:43.605Z,793.38
2017-11-03T00:32:47.830Z,793.41
2017-11-03T00:32:51.775Z,793.37
2017-11-03T00:32:55.996Z,793.39
2017-11-03T00:33:00.355Z,793.39
2017-11-03T00:33:04.623Z,793.39
2017-11-03T00:33:08.571Z,793.41
2017-11-03T00:33:12.388Z,793.38
2017-11-03T00:33:16.228Z,793.37
2017-11-03T00:33:20.282Z,793.39
2017-11-03T00:33:24.355Z,793.35
2017-11-03T00:33:28.304Z,793.35
2017-11-03T00:33:31.989Z,793.42
2017-11-03T00:33:35.936Z,793.41
2017-11-03T00:33:40.142Z,793.42
2017-11-03T00:33:43.826Z,793.43
2017-11-03T00:33:48.038Z,793.41
2017-11-03T00:33:52.246Z,793.42
2017-11-03T00:33:56.600Z,793.41
2017-11-03T00:34:00.679Z,793.4
2017-11-03T00:34:04.853Z,793.39
2017-11-03T00:34:09.073Z,793.4
2017-11-03T00:34:13.021Z,793.41
2017-11-03T00:34:16.837Z,793.35
2017-11-03T00:34:21.059Z,793.41
2017-11-03T00:34:25.282Z,793.37
2017-11-03T00:34:29.093Z,793.37
2017-11-03T00:34:33.178Z,793.38
2017-11-03T00:34:37.529Z,793.39
2017-11-03T00:34:41.750Z,793.38
2017-11-03T00:34:46.226Z,793.39
2017-11-03T00:34:50.732Z,793.41
2017-11-03T00:34:54.945Z,793.4
2017-11-03T00:34:59.028Z,793.4
2017-11-03T00:35:03.421Z,793.41
2017-11-03T00:35:07.503Z,793.38
2017-11-03T00:35:11.846Z,793.38
2017-11-03T00:35:15.667Z,793.39
2017-11-03T00:35:19.482Z,793.39
2017-11-03T00:35:23.295Z,793.36
2017-11-03T00:35:27.406Z,793.4
2017-11-03T00:35:31.483Z,793.4
2017-11-03T00:35:35.432Z,793.4
2017-11-03T00:35:39.383Z,793.41
2017-11-03T00:35:43.588Z,793.38
2017-11-03T00:35:47.796Z,793.39
2017-11-03T00:35:51.874Z,793.36
2017-11-03T00:35:55.948Z,793.38
2017-11-03T00:35:59.902Z,793.34
2017-11-03T00:36:03.908Z,793.38
2017-11-03T00:36:07.866Z,793.37
2017-11-03T00:36:11.804Z,793.39
2017-11-03T00:36:16.279Z,793.37
2017-11-03T00:36:20.223Z,793.39
2017-11-03T00:36:24.036Z,793.36
2017-11-03T00:36:27.718Z,793.38
2017-11-03T00:36:31.799Z,793.4
2017-11-03T00:36:35.742Z,793.35
2017-11-03T00:36:39.948Z,793.36
2017-11-03T00:36:44.035Z,793.4
2017-11-03T00:36:47.851Z,793.35
2017-11-03T00:36:51.668Z,793.33
2017-11-03T00:36:55.746Z,793.34
2017-11-03T00:36:59.835Z,793.34
2017-11-03T00:37:04.060Z,793.36
2017-11-03T00:37:08.010Z,793.34
2017-11-03T00:37:12.234Z,793.35
2017-11-03T00:37:16.050Z,793.33
2017-11-03T00:37:20.260Z,793.32
2017-11-03T00:37:24.614Z,793.37
2017-11-03T00:37:28.956Z,793.38
2017-11-03T00:37:32.903Z,793.36
2017-11-03T00:37:37.001Z,793.36
2017-11-03T00:37:41.055Z,793.36
2017-11-03T00:37:45.278Z,793.31
2017-11-03T00:37:49.089Z,793.3
2017-11-03T00:37:53.433Z,793.31
2017-11-03T00:37:57.660Z,793.34
2017-11-03T00:38:01.608Z,793.37
2017-11-03T00:38:05.873Z,793.37
2017-11-03T00:38:10.086Z,793.38
2017-11-03T00:38:13.902Z,793.35
2017-11-03T00:38:17.874Z,793.36
2017-11-03T00:38:22.082Z,793.39
2017-11-03T00:38:26.300Z,793.3
2017-11-03T00:38:30.119Z,793.33
2017-11-03T00:38:34.204Z,793.35
2017-11-03T00:38:38.162Z,793.35
2017-11-03T00:38:42.375Z,793.3
2017-11-03T00:38:46.582Z,793.3
2017-11-03T00:38:50.796Z,793.31
2017-11-03T00:38:55.021Z,793.32
2017-11-03T00:38:59.108Z,793.34
2017-11-03T00:39:03.342Z,793.32
2017-11-03T00:39:07.427Z,793.32
2017-11-03T00:39:11.774Z,793.37
2017-11-03T00:39:15.722Z,793.37
2017-11-03T00:39:19.538Z,793.32
2017-11-03T00:39:23.756Z,793.32
2017-11-03T00:39:27.860Z,793.35
2017-11-03T00:39:31.938Z,793.33
2017-11-03T00:39:36.165Z,793.29
2017-11-03T00:39:40.108Z,793.33
2017-11-03T00:39:44.066Z,793.3
2017-11-03T00:39:48.279Z,793.34
2017-11-03T00:39:52.493Z,793.34
2017-11-03T00:39:56.311Z,793.35
2017-11-03T00:40:00.535Z,793.31
2017-11-03T00:40:04.620Z,793.34
2017-11-03T00:40:08.563Z,793.31
2017-11-03T00:40:12.649Z,793.31
2017-11-03T00:40:16.586Z,793.32
2017-11-03T00:40:20.527Z,793.32
2017-11-03T00:40:24.342Z,793.33
2017-11-03T00:40:28.560Z,793.33
2017-11-03T00:40:32.371Z,793.33
2017-11-03T00:40:36.061Z,793.34
2017-11-03T00:40:40.423Z,793.31
2017-11-03T00:40:44.505Z,793.32
2017-11-03T00:40:48.840Z,793.34
2017-11-03T00:40:53.320Z,793.36
2017-11-03T00:40:57.144Z,793.35
2017-11-03T00:41:00.963Z,793.31
2017-11-03T00:41:04.917Z,793.31
2017-11-03T00:41:08.867Z,793.35
2017-11-03T00:41:12.684Z,793.33
2017-11-03T00:41:16.632Z,793.35
2017-11-03T00:41:20.587Z,793.34
2017-11-03T00:41:24.923Z,793.33
2017-11-03T00:41:28.875Z,793.33
2017-11-03T00:41:32.695Z,793.33
2017-11-03T00:41:36.637Z,793.34
2017-11-03T00:41:40.841Z,793.29
2017-11-03T00:41:44.657Z,793.35
2017-11-03T00:41:48.605Z,793.3
2017-11-03T00:41:52.551Z,793.33
2017-11-03T00:41:56.631Z,793.34
2017-11-03T00:42:00.579Z,793.36
2017-11-03T00:42:05.114Z,793.34
2017-11-03T00:42:09.060Z,793.34
2017-11-03T00:42:13.142Z,793.34
2017-11-03T00:42:17.352Z,793.34
2017-11-03T00:42:21.573Z,793.35
2017-11-03T00:42:25.784Z,793.37
2017-11-03T00:42:29.598Z,793.31
2017-11-03T00:42:33.817Z,793.36
2017-11-03T00:42:37.499Z,793.39
2017-11-03T00:42:41.441Z,793.34
2017-11-03T00:42:45.666Z,793.34
2017-11-03T00:42:49.622Z,793.34
2017-11-03T00:42:53.438Z,793.35
2017-11-03T00:42:57.650Z,793.29
2017-11-03T00:43:01.898Z,793.34
2017-11-03T00:43:06.446Z,793.33
2017-11-03T00:43:10.271Z,793.33
2017-11-03T00:43:14.485Z,793.32
2017-11-03T00:43:18.819Z,793.3
2017-11-03T00:43:23.167Z,793.34
2017-11-03T00:43:26.985Z,793.33
2017-11-03T00:43:31.337Z,793.33
2017-11-03T00:43:35.419Z,793.32
2017-11-03T00:43:39.371Z,793.34
2017-11-03T00:43:43.350Z,793.32
2017-11-03T00:43:47.436Z,793.33
2017-11-03T00:43:51.771Z,793.28
2017-11-03T00:43:55.586Z,793.32
2017-11-03T00:43:59.926Z,793.3
2017-11-03T00:44:04.386Z,793.31
2017-11-03T00:44:08.082Z,793.33
2017-11-03T00:44:12.292Z,793.25
2017-11-03T00:44:16.370Z,793.27
2017-11-03T00:44:20.465Z,793.27
2017-11-03T00:44:24.676Z,793.28
2017-11-03T00:44:28.886Z,793.31
2017-11-03T00:44:32.845Z,793.31
2017-11-03T00:44:37.060Z,793.31
2017-11-03T00:44:41.266Z,793.28
2017-11-03T00:44:45.472Z,793.27
2017-11-03T00:44:49.558Z,793.28
2017-11-03T00:44:53.771Z,793.3
2017-11-03T00:44:57.721Z,793.28
2017-11-03T00:45:01.805Z,793.28
2017-11-03T00:45:06.317Z,793.3
2017-11-03T00:45:10.129Z,793.32
2017-11-03T00:45:14.215Z,793.31
2017-11-03T00:45:18.421Z,793.28
2017-11-03T00:45:22.499Z,793.29
2017-11-03T00:45:26.596Z,793.29
2017-11-03T00:45:30.425Z,793.28
2017-11-03T00:45:34.502Z,793.27
2017-11-03T00:45:38.722Z,793.29
2017-11-03T00:45:42.936Z,793.3
2017-11-03T00:45:47.016Z,793.28
2017-11-03T00:45:50.960Z,793.28
2017-11-03T00:45:54.905Z,793.29
2017-11-03T00:45:58.977Z,793.28
2017-11-03T00:46:03.329Z,793.26
2017-11-03T00:46:07.610Z,793.26
2017-11-03T00:46:11.558Z,793.26
2017-11-03T00:46:15.894Z,793.22
2017-11-03T00:46:19.845Z,793.26
2017-11-03T00:46:23.956Z,793.27
2017-11-03T00:46:27.907Z,793.28
2017-11-03T00:46:31.850Z,793.32
2017-11-03T00:46:35.958Z,793.25
2017-11-03T00:46:40.035Z,793.28
2017-11-03T00:46:43.994Z,793.28
2017-11-03T00:46:48.237Z,793.29
2017-11-03T00:46:52.577Z,793.27
2017-11-03T00:46:56.525Z,793.28
2017-11-03T00:47:00.337Z,793.28
2017-11-03T00:47:04.548Z,793.22
2017-11-03T00:47:08.633Z,793.29
2017-11-03T00:47:12.892Z,793.29
2017-11-03T00:47:16.710Z,793.29
2017-11-03T00:47:20.918Z,793.29
2017-11-03T00:47:25.132Z,793.29
2017-11-03T00:47:29.346Z,793.29
2017-11-03T00:47:33.163Z,793.3
2017-11-03T00:47:37.252Z,793.29
2017-11-03T00:47:41.328Z,793.31
2017-11-03T00:47:45.277Z,793.24
2017-11-03T00:47:49.230Z,793.23
2017-11-03T00:47:53.328Z,793.31
2017-11-03T00:47:57.407Z,793.33
2017-11-03T00:48:01.494Z,793.35
2017-11-03T00:48:05.416Z,793.31
2017-11-03T00:48:09.365Z,793.32
2017-11-03T00:48:13.589Z,793.31
2017-11-03T00:48:18.069Z,793.3
2017-11-03T00:48:22.280Z,793.33
2017-11-03T00:48:26.095Z,793.32
2017-11-03T00:48:29.906Z,793.33
2017-11-03T00:48:33.982Z,793.3
2017-11-03T00:48:38.063Z,793.31
2017-11-03T00:48:42.298Z,793.31
2017-11-03T00:48:46.514Z,793.33
2017-11-03T00:48:50.588Z,793.32
2017-11-03T00:48:54.539Z,793.34
2017-11-03T00:48:58.795Z,793.31
2017-11-03T00:49:03.078Z,793.32
2017-11-03T00:49:06.899Z,793.32
2017-11-03T00:49:11.111Z,793.31
2017-11-03T00:49:15.311Z,793.32
2017-11-03T00:49:19.389Z,793.34
2017-11-03T00:49:23.474Z,793.3
2017-11-03T00:49:27.288Z,793.35
2017-11-03T00:49:31.383Z,793.32
2017-11-03T00:49:35.749Z,793.27
2017-11-03T00:49:39.694Z,793.34
2017-11-03T00:49:44.037Z,793.3
2017-11-03T00:49:48.389Z,793.28
2017-11-03T00:49:52.471Z,793.31
2017-11-03T00:49:56.555Z,793.32
2017-11-03T00:50:00.921Z,793.32
2017-11-03T00:50:05.431Z,793.35
2017-11-03T00:50:09.373Z,793.32
2017-11-03T00:50:13.457Z,793.38
2017-11-03T00:50:17.664Z,793.34
2017-11-03T00:50:21.613Z,793.33
2017-11-03T00:50:25.568Z,793.33
2017-11-03T00:50:29.514Z,793.33
2017-11-03T00:50:33.329Z,793.36
2017-11-03T00:50:37.406Z,793.32
2017-11-03T00:50:41.365Z,793.35
2017-11-03T00:50:45.436Z,793.33
2017-11-03T00:50:49.519Z,793.35
2017-11-03T00:50:53.472Z,793.34
2017-11-03T00:50:57.691Z,793.33
2017-11-03T00:51:01.665Z,793.34
2017-11-03T00:51:05.635Z,793.36
2017-11-03T00:51:09.743Z,793.36
2017-11-03T00:51:13.963Z,793.33
2017-11-03T00:51:17.911Z,793.33
2017-11-03T00:51:21.725Z,793.34
2017-11-03T00:51:25.929Z,793.38
2017-11-03T00:51:29.870Z,793.37
2017-11-03T00:51:33.680Z,793.36
2017-11-03T00:51:37.636Z,793.38
2017-11-03T00:51:41.713Z,793.34